sensor_id;sensor_type;location;lat;lon;timestamp;pressure;altitude;pressure_sealevel;temperature;humidity
8653;BME280;4364;52.426;9.424;2023-02-12T00:01:14;103125.19;;;7.17;100.00
8653;BME280;4364;52.426;9.424;2023-02-12T00:03:40;103124.22;;;7.25;100.00
8653;BME280;4364;52.426;9.424;2023-02-12T00:06:08;103117.69;;;7.19;100.00
8653;BME280;4364;52.426;9.424;2023-02-12T00:08:35;103126.13;;;7.31;100.00
8653;BME280;4364;52.426;9.424;2023-02-12T00:11:07;103129.63;;;7.25;100.00
8653;BME280;4364;52.426;9.424;2023-02-12T00:13:34;103130.78;;;7.16;100.00
8653;BME280;4364;52.426;9.424;2023-02-12T00:16:04;103131.34;;;7.11;100.00
8653;BME280;4364;52.426;9.424;2023-02-12T00:18:30;103127.88;;;7.17;100.00
8653;BME280;4364;52.426;9.424;2023-02-12T00:20:58;103135.03;;;7.25;100.00
8653;BME280;4364;52.426;9.424;2023-02-12T00:23:26;103134.91;;;7.12;100.00
8653;BME280;4364;52.426;9.424;2023-02-12T00:25:52;103131.09;;;7.06;100.00
8653;BME280;4364;52.426;9.424;2023-02-12T00:28:19;103142.75;;;7.07;100.00
8653;BME280;4364;52.426;9.424;2023-02-12T00:30:46;103139.16;;;6.99;100.00
8653;BME280;4364;52.426;9.424;2023-02-12T00:33:12;103137.28;;;7.00;100.00
8653;BME280;4364;52.426;9.424;2023-02-12T00:35:39;103143.22;;;7.10;100.00
8653;BME280;4364;52.426;9.424;2023-02-12T00:38:06;103146.31;;;7.07;100.00
8653;BME280;4364;52.426;9.424;2023-02-12T00:40:32;103145.00;;;7.03;100.00
8653;BME280;4364;52.426;9.424;2023-02-12T00:42:59;103137.69;;;6.97;100.00
8653;BME280;4364;52.426;9.424;2023-02-12T00:45:25;103144.38;;;7.01;100.00
8653;BME280;4364;52.426;9.424;2023-02-12T00:47:51;103142.31;;;7.03;100.00
8653;BME280;4364;52.426;9.424;2023-02-12T00:50:18;103153.19;;;7.10;100.00
8653;BME280;4364;52.426;9.424;2023-02-12T00:52:45;103147.53;;;7.04;100.00
8653;BME280;4364;52.426;9.424;2023-02-12T00:55:11;103148.09;;;7.00;100.00
8653;BME280;4364;52.426;9.424;2023-02-12T00:57:38;103147.34;;;7.06;100.00
8653;BME280;4364;52.426;9.424;2023-02-12T01:00:05;103154.75;;;6.97;100.00
8653;BME280;4364;52.426;9.424;2023-02-12T01:02:33;103150.63;;;7.01;100.00
8653;BME280;4364;52.426;9.424;2023-02-12T01:04:59;103160.91;;;6.91;100.00
8653;BME280;4364;52.426;9.424;2023-02-12T01:07:26;103159.06;;;6.92;100.00
8653;BME280;4364;52.426;9.424;2023-02-12T01:09:54;103156.22;;;7.00;100.00
8653;BME280;4364;52.426;9.424;2023-02-12T01:12:21;103157.19;;;6.92;100.00
8653;BME280;4364;52.426;9.424;2023-02-12T01:14:47;103156.44;;;6.98;100.00
8653;BME280;4364;52.426;9.424;2023-02-12T01:17:14;103165.38;;;6.99;100.00
8653;BME280;4364;52.426;9.424;2023-02-12T01:19:43;103167.25;;;6.98;100.00
8653;BME280;4364;52.426;9.424;2023-02-12T01:22:09;103163.25;;;6.94;100.00
8653;BME280;4364;52.426;9.424;2023-02-12T01:24:36;103170.28;;;6.89;100.00
8653;BME280;4364;52.426;9.424;2023-02-12T01:27:02;103161.22;;;6.81;100.00
8653;BME280;4364;52.426;9.424;2023-02-12T01:29:29;103165.81;;;7.02;100.00
8653;BME280;4364;52.426;9.424;2023-02-12T01:31:55;103170.00;;;6.83;100.00
8653;BME280;4364;52.426;9.424;2023-02-12T01:34:22;103170.09;;;6.90;100.00
8653;BME280;4364;52.426;9.424;2023-02-12T01:36:48;103167.44;;;6.97;100.00
8653;BME280;4364;52.426;9.424;2023-02-12T01:39:14;103168.41;;;6.89;100.00
8653;BME280;4364;52.426;9.424;2023-02-12T01:41:43;103165.13;;;6.94;100.00
8653;BME280;4364;52.426;9.424;2023-02-12T01:44:17;103171.34;;;6.94;100.00
8653;BME280;4364;52.426;9.424;2023-02-12T01:46:54;103176.69;;;6.88;100.00
8653;BME280;4364;52.426;9.424;2023-02-12T01:51:59;103178.69;;;6.79;100.00
8653;BME280;4364;52.426;9.424;2023-02-12T01:54:27;103178.31;;;6.82;100.00
8653;BME280;4364;52.426;9.424;2023-02-12T01:56:54;103178.97;;;6.84;100.00
8653;BME280;4364;52.426;9.424;2023-02-12T01:59:21;103185.75;;;6.80;100.00
8653;BME280;4364;52.426;9.424;2023-02-12T02:01:48;103181.13;;;6.74;100.00
8653;BME280;4364;52.426;9.424;2023-02-12T02:04:18;103174.94;;;6.80;100.00
8653;BME280;4364;52.426;9.424;2023-02-12T02:06:49;103178.75;;;6.85;100.00
8653;BME280;4364;52.426;9.424;2023-02-12T02:09:18;103166.63;;;6.81;100.00
8653;BME280;4364;52.426;9.424;2023-02-12T02:11:45;103167.34;;;6.68;100.00
8653;BME280;4364;52.426;9.424;2023-02-12T02:14:30;103170.78;;;6.77;100.00
8653;BME280;4364;52.426;9.424;2023-02-12T02:23:08;103170.28;;;6.52;100.00
8653;BME280;4364;52.426;9.424;2023-02-12T02:26:01;103169.03;;;6.55;100.00
8653;BME280;4364;52.426;9.424;2023-02-12T02:31:47;103175.03;;;6.50;100.00
8653;BME280;4364;52.426;9.424;2023-02-12T02:37:31;103171.00;;;6.46;100.00
8653;BME280;4364;52.426;9.424;2023-02-12T02:43:08;103166.25;;;6.48;100.00
8653;BME280;4364;52.426;9.424;2023-02-12T02:45:54;103160.00;;;6.47;100.00
8653;BME280;4364;52.426;9.424;2023-02-12T02:48:29;103166.34;;;6.40;100.00
8653;BME280;4364;52.426;9.424;2023-02-12T02:51:02;103166.84;;;6.43;100.00
8653;BME280;4364;52.426;9.424;2023-02-12T02:53:34;103164.44;;;6.34;100.00
8653;BME280;4364;52.426;9.424;2023-02-12T02:56:06;103163.53;;;6.48;100.00
8653;BME280;4364;52.426;9.424;2023-02-12T02:58:39;103162.28;;;6.29;100.00
8653;BME280;4364;52.426;9.424;2023-02-12T03:01:19;103161.00;;;6.25;100.00
8653;BME280;4364;52.426;9.424;2023-02-12T03:04:02;103166.47;;;6.32;100.00
8653;BME280;4364;52.426;9.424;2023-02-12T03:06:35;103162.38;;;6.36;100.00
8653;BME280;4364;52.426;9.424;2023-02-12T03:09:14;103163.09;;;6.29;100.00
8653;BME280;4364;52.426;9.424;2023-02-12T03:11:41;103161.81;;;6.25;100.00
8653;BME280;4364;52.426;9.424;2023-02-12T03:14:21;103162.38;;;6.21;100.00
8653;BME280;4364;52.426;9.424;2023-02-12T03:19:39;103170.47;;;6.21;100.00
8653;BME280;4364;52.426;9.424;2023-02-12T03:22:10;103171.91;;;6.17;100.00
8653;BME280;4364;52.426;9.424;2023-02-12T03:24:42;103169.38;;;6.30;100.00
8653;BME280;4364;52.426;9.424;2023-02-12T03:27:18;103175.69;;;6.22;100.00
8653;BME280;4364;52.426;9.424;2023-02-12T03:29:45;103178.88;;;6.26;100.00
8653;BME280;4364;52.426;9.424;2023-02-12T03:37:18;103178.78;;;6.19;100.00
8653;BME280;4364;52.426;9.424;2023-02-12T03:42:34;103172.34;;;6.20;100.00
8653;BME280;4364;52.426;9.424;2023-02-12T03:45:16;103184.53;;;6.16;100.00
8653;BME280;4364;52.426;9.424;2023-02-12T03:47:56;103182.53;;;6.18;100.00
8653;BME280;4364;52.426;9.424;2023-02-12T03:50:38;103184.09;;;6.12;100.00
8653;BME280;4364;52.426;9.424;2023-02-12T03:53:07;103192.75;;;6.08;100.00
8653;BME280;4364;52.426;9.424;2023-02-12T03:55:35;103192.38;;;6.11;100.00
8653;BME280;4364;52.426;9.424;2023-02-12T03:58:08;103196.75;;;6.12;100.00
8653;BME280;4364;52.426;9.424;2023-02-12T04:00:37;103204.03;;;6.11;100.00
8653;BME280;4364;52.426;9.424;2023-02-12T04:03:04;103207.00;;;6.02;100.00
8653;BME280;4364;52.426;9.424;2023-02-12T04:05:32;103209.72;;;6.02;100.00
8653;BME280;4364;52.426;9.424;2023-02-12T04:07:59;103213.47;;;5.92;100.00
8653;BME280;4364;52.426;9.424;2023-02-12T04:10:32;103206.25;;;6.08;100.00
8653;BME280;4364;52.426;9.424;2023-02-12T04:13:17;103209.72;;;6.02;100.00
8653;BME280;4364;52.426;9.424;2023-02-12T04:18:42;103217.72;;;6.10;100.00
8653;BME280;4364;52.426;9.424;2023-02-12T04:21:31;103225.72;;;6.03;100.00
8653;BME280;4364;52.426;9.424;2023-02-12T04:27:01;103225.78;;;5.95;100.00
8653;BME280;4364;52.426;9.424;2023-02-12T04:29:56;103228.84;;;5.92;100.00
8653;BME280;4364;52.426;9.424;2023-02-12T04:38:25;103240.00;;;5.89;100.00
8653;BME280;4364;52.426;9.424;2023-02-12T04:40:52;103239.81;;;5.90;100.00
8653;BME280;4364;52.426;9.424;2023-02-12T04:43:27;103234.31;;;5.84;100.00
8653;BME280;4364;52.426;9.424;2023-02-12T04:45:54;103235.16;;;5.84;100.00
8653;BME280;4364;52.426;9.424;2023-02-12T04:48:21;103233.97;;;5.87;100.00
8653;BME280;4364;52.426;9.424;2023-02-12T04:50:47;103233.78;;;5.88;100.00
8653;BME280;4364;52.426;9.424;2023-02-12T04:53:14;103235.72;;;5.94;100.00
8653;BME280;4364;52.426;9.424;2023-02-12T04:55:41;103228.84;;;5.92;100.00
8653;BME280;4364;52.426;9.424;2023-02-12T04:58:07;103234.59;;;5.89;100.00
8653;BME280;4364;52.426;9.424;2023-02-12T05:00:34;103226.03;;;5.85;100.00
8653;BME280;4364;52.426;9.424;2023-02-12T05:03:00;103232.44;;;5.84;100.00
8653;BME280;4364;52.426;9.424;2023-02-12T05:05:27;103238.50;;;5.86;100.00
8653;BME280;4364;52.426;9.424;2023-02-12T05:07:53;103234.78;;;5.87;100.00
8653;BME280;4364;52.426;9.424;2023-02-12T05:10:19;103239.34;;;5.87;100.00
8653;BME280;4364;52.426;9.424;2023-02-12T05:12:46;103237.66;;;5.86;100.00
8653;BME280;4364;52.426;9.424;2023-02-12T05:15:13;103244.13;;;5.85;100.00
8653;BME280;4364;52.426;9.424;2023-02-12T05:17:39;103240.00;;;5.89;100.00
8653;BME280;4364;52.426;9.424;2023-02-12T05:20:07;103231.25;;;5.87;100.00
8653;BME280;4364;52.426;9.424;2023-02-12T05:22:33;103243.91;;;5.86;100.00
8653;BME280;4364;52.426;9.424;2023-02-12T05:25:00;103235.63;;;5.88;100.00
8653;BME280;4364;52.426;9.424;2023-02-12T05:27:27;103236.13;;;5.91;100.00
8653;BME280;4364;52.426;9.424;2023-02-12T05:29:53;103235.63;;;5.88;100.00
8653;BME280;4364;52.426;9.424;2023-02-12T05:32:22;103237.50;;;5.87;100.00
8653;BME280;4364;52.426;9.424;2023-02-12T05:34:49;103236.00;;;5.85;100.00
8653;BME280;4364;52.426;9.424;2023-02-12T05:37:15;103238.50;;;5.86;100.00
8653;BME280;4364;52.426;9.424;2023-02-12T05:39:42;103235.81;;;5.86;100.00
8653;BME280;4364;52.426;9.424;2023-02-12T05:42:09;103246.59;;;5.86;100.00
8653;BME280;4364;52.426;9.424;2023-02-12T05:44:35;103240.19;;;5.87;100.00
8653;BME280;4364;52.426;9.424;2023-02-12T05:47:02;103243.53;;;5.89;100.00
8653;BME280;4364;52.426;9.424;2023-02-12T05:49:28;103245.78;;;5.86;100.00
8653;BME280;4364;52.426;9.424;2023-02-12T05:51:55;103236.84;;;5.85;100.00
8653;BME280;4364;52.426;9.424;2023-02-12T05:54:21;103235.44;;;5.89;100.00
8653;BME280;4364;52.426;9.424;2023-02-12T05:56:48;103239.19;;;5.88;100.00
8653;BME280;4364;52.426;9.424;2023-02-12T05:59:17;103241.88;;;5.88;100.00
8653;BME280;4364;52.426;9.424;2023-02-12T06:01:46;103244.13;;;5.85;100.00
8653;BME280;4364;52.426;9.424;2023-02-12T06:04:15;103248.66;;;5.84;100.00
8653;BME280;4364;52.426;9.424;2023-02-12T06:06:42;103245.78;;;5.86;100.00
8653;BME280;4364;52.426;9.424;2023-02-12T06:09:10;103243.25;;;5.84;100.00
8653;BME280;4364;52.426;9.424;2023-02-12T06:11:38;103248.28;;;5.87;100.00
8653;BME280;4364;52.426;9.424;2023-02-12T06:14:06;103244.13;;;5.85;100.00
8653;BME280;4364;52.426;9.424;2023-02-12T06:16:33;103254.22;;;5.83;100.00
8653;BME280;4364;52.426;9.424;2023-02-12T06:19:03;103253.03;;;5.85;100.00
8653;BME280;4364;52.426;9.424;2023-02-12T06:21:30;103256.03;;;5.90;100.00
8653;BME280;4364;52.426;9.424;2023-02-12T06:23:58;103254.75;;;6.01;100.00
8653;BME280;4364;52.426;9.424;2023-02-12T06:26:25;103261.91;;;5.94;100.00
8653;BME280;4364;52.426;9.424;2023-02-12T06:28:51;103253.50;;;5.89;100.00
8653;BME280;4364;52.426;9.424;2023-02-12T06:31:22;103259.09;;;5.87;100.00
8653;BME280;4364;52.426;9.424;2023-02-12T06:33:50;103253.97;;;5.92;100.00
8653;BME280;4364;52.426;9.424;2023-02-12T06:36:17;103262.63;;;5.88;100.00
8653;BME280;4364;52.426;9.424;2023-02-12T06:38:44;103260.97;;;5.87;100.00
8653;BME280;4364;52.426;9.424;2023-02-12T06:41:11;103265.72;;;5.85;100.00
8653;BME280;4364;52.426;9.424;2023-02-12T06:43:38;103269.91;;;5.87;100.00
8653;BME280;4364;52.426;9.424;2023-02-12T06:46:05;103263.19;;;5.83;100.00
8653;BME280;4364;52.426;9.424;2023-02-12T06:48:32;103267.91;;;5.81;100.00
8653;BME280;4364;52.426;9.424;2023-02-12T06:51:12;103277.28;;;5.93;100.00
8653;BME280;4364;52.426;9.424;2023-02-12T06:53:40;103278.81;;;5.88;100.00
8653;BME280;4364;52.426;9.424;2023-02-12T06:56:08;103281.53;;;5.88;100.00
8653;BME280;4364;52.426;9.424;2023-02-12T06:58:41;103290.78;;;5.93;100.00
8653;BME280;4364;52.426;9.424;2023-02-12T07:03:53;103297.00;;;5.94;100.00
8653;BME280;4364;52.426;9.424;2023-02-12T07:06:20;103299.25;;;5.90;100.00
8653;BME280;4364;52.426;9.424;2023-02-12T07:08:48;103299.38;;;5.97;100.00
8653;BME280;4364;52.426;9.424;2023-02-12T07:11:15;103311.50;;;6.01;100.00
8653;BME280;4364;52.426;9.424;2023-02-12T07:13:42;103314.75;;;5.97;100.00
8653;BME280;4364;52.426;9.424;2023-02-12T07:16:14;103313.03;;;5.96;100.00
8653;BME280;4364;52.426;9.424;2023-02-12T07:18:42;103313.03;;;5.96;100.00
8653;BME280;4364;52.426;9.424;2023-02-12T07:21:10;103311.66;;;6.00;100.00
8653;BME280;4364;52.426;9.424;2023-02-12T07:23:37;103313.66;;;6.06;100.00
8653;BME280;4364;52.426;9.424;2023-02-12T07:26:05;103322.78;;;6.05;100.00
8653;BME280;4364;52.426;9.424;2023-02-12T07:28:32;103316.88;;;6.01;100.00
8653;BME280;4364;52.426;9.424;2023-02-12T07:31:05;103317.56;;;6.03;100.00
8653;BME280;4364;52.426;9.424;2023-02-12T07:33:33;103318.59;;;6.02;100.00
8653;BME280;4364;52.426;9.424;2023-02-12T07:36:00;103317.56;;;6.03;100.00
8653;BME280;4364;52.426;9.424;2023-02-12T07:38:27;103313.28;;;6.09;100.00
8653;BME280;4364;52.426;9.424;2023-02-12T07:40:54;103318.59;;;6.02;100.00
8653;BME280;4364;52.426;9.424;2023-02-12T07:43:23;103314.59;;;5.98;100.00
8653;BME280;4364;52.426;9.424;2023-02-12T07:45:50;103321.41;;;6.09;100.00
8653;BME280;4364;52.426;9.424;2023-02-12T07:48:16;103317.94;;;6.00;100.00
8653;BME280;4364;52.426;9.424;2023-02-12T07:50:43;103324.81;;;6.03;100.00
8653;BME280;4364;52.426;9.424;2023-02-12T07:53:09;103321.88;;;6.12;100.00
8653;BME280;4364;52.426;9.424;2023-02-12T07:55:36;103322.22;;;6.09;100.00
8653;BME280;4364;52.426;9.424;2023-02-12T07:58:02;103324.09;;;6.09;100.00
8653;BME280;4364;52.426;9.424;2023-02-12T08:00:29;103320.22;;;6.11;100.00
8653;BME280;4364;52.426;9.424;2023-02-12T08:02:55;103317.88;;;6.08;100.00
8653;BME280;4364;52.426;9.424;2023-02-12T08:05:22;103323.59;;;6.28;100.00
8653;BME280;4364;52.426;9.424;2023-02-12T08:07:48;103323.66;;;6.20;100.00
8653;BME280;4364;52.426;9.424;2023-02-12T08:10:15;103329.72;;;6.22;100.00
8653;BME280;4364;52.426;9.424;2023-02-12T08:12:41;103335.13;;;6.22;100.00
8653;BME280;4364;52.426;9.424;2023-02-12T08:15:08;103332.78;;;6.19;100.00
8653;BME280;4364;52.426;9.424;2023-02-12T08:17:35;103337.09;;;6.28;100.00
8653;BME280;4364;52.426;9.424;2023-02-12T08:20:02;103332.91;;;6.41;100.00
8653;BME280;4364;52.426;9.424;2023-02-12T08:22:28;103341.16;;;6.24;100.00
8653;BME280;4364;52.426;9.424;2023-02-12T08:24:54;103340.34;;;6.24;100.00
8653;BME280;4364;52.426;9.424;2023-02-12T08:27:21;103342.88;;;6.25;100.00
8653;BME280;4364;52.426;9.424;2023-02-12T08:29:47;103346.56;;;6.24;100.00
8653;BME280;4364;52.426;9.424;2023-02-12T08:32:14;103345.03;;;6.30;100.00
8653;BME280;4364;52.426;9.424;2023-02-12T08:34:42;103347.91;;;6.28;100.00
8653;BME280;4364;52.426;9.424;2023-02-12T08:37:09;103346.44;;;6.41;100.00
8653;BME280;4364;52.426;9.424;2023-02-12T08:39:35;103345.06;;;6.45;100.00
8653;BME280;4364;52.426;9.424;2023-02-12T08:42:02;103353.91;;;6.54;100.00
8653;BME280;4364;52.426;9.424;2023-02-12T08:44:28;103348.97;;;6.57;100.00
8653;BME280;4364;52.426;9.424;2023-02-12T08:46:55;103353.81;;;6.62;100.00
8653;BME280;4364;52.426;9.424;2023-02-12T08:49:25;103355.09;;;6.51;100.00
8653;BME280;4364;52.426;9.424;2023-02-12T08:51:53;103357.63;;;6.53;100.00
8653;BME280;4364;52.426;9.424;2023-02-12T08:54:23;103364.91;;;6.52;100.00
8653;BME280;4364;52.426;9.424;2023-02-12T08:56:53;103356.44;;;6.55;100.00
8653;BME280;4364;52.426;9.424;2023-02-12T08:59:21;103368.06;;;6.56;100.00
8653;BME280;4364;52.426;9.424;2023-02-12T09:01:50;103364.28;;;6.65;100.00
8653;BME280;4364;52.426;9.424;2023-02-12T09:04:20;103372.66;;;6.70;100.00
8653;BME280;4364;52.426;9.424;2023-02-12T09:06:48;103368.09;;;6.71;100.00
8653;BME280;4364;52.426;9.424;2023-02-12T09:09:14;103372.00;;;6.68;100.00
8653;BME280;4364;52.426;9.424;2023-02-12T09:11:41;103371.16;;;6.67;100.00
8653;BME280;4364;52.426;9.424;2023-02-12T09:14:11;103374.41;;;6.63;100.00
8653;BME280;4364;52.426;9.424;2023-02-12T09:16:39;103376.94;;;6.79;100.00
8653;BME280;4364;52.426;9.424;2023-02-12T09:19:07;103376.84;;;6.73;100.00
8653;BME280;4364;52.426;9.424;2023-02-12T09:21:34;103379.28;;;6.82;100.00
8653;BME280;4364;52.426;9.424;2023-02-12T09:24:01;103384.41;;;6.92;100.00
8653;BME280;4364;52.426;9.424;2023-02-12T09:26:29;103386.47;;;6.90;100.00
8653;BME280;4364;52.426;9.424;2023-02-12T09:28:55;103385.16;;;6.86;100.00
8653;BME280;4364;52.426;9.424;2023-02-12T09:31:25;103380.22;;;6.90;100.00
8653;BME280;4364;52.426;9.424;2023-02-12T09:34:02;103385.25;;;6.93;100.00
8653;BME280;4364;52.426;9.424;2023-02-12T09:36:29;103388.78;;;6.93;100.00
8653;BME280;4364;52.426;9.424;2023-02-12T09:38:56;103390.75;;;6.99;100.00
8653;BME280;4364;52.426;9.424;2023-02-12T09:41:40;103390.38;;;7.02;100.00
8653;BME280;4364;52.426;9.424;2023-02-12T09:44:16;103391.59;;;7.00;100.00
8653;BME280;4364;52.426;9.424;2023-02-12T09:47:34;103397.31;;;7.05;100.00
8653;BME280;4364;52.426;9.424;2023-02-12T09:50:09;103394.78;;;7.03;100.00
8653;BME280;4364;52.426;9.424;2023-02-12T09:52:39;103397.50;;;7.03;100.00
8653;BME280;4364;52.426;9.424;2023-02-12T09:55:12;103402.03;;;7.03;100.00
8653;BME280;4364;52.426;9.424;2023-02-12T09:57:40;103398.03;;;6.99;100.00
8653;BME280;4364;52.426;9.424;2023-02-12T10:02:37;103405.50;;;7.12;100.00
8653;BME280;4364;52.426;9.424;2023-02-12T10:05:13;103397.84;;;7.00;100.00
8653;BME280;4364;52.426;9.424;2023-02-12T10:10:49;103405.59;;;7.18;100.00
8653;BME280;4364;52.426;9.424;2023-02-12T10:13:40;103406.69;;;7.24;100.00
8653;BME280;4364;52.426;9.424;2023-02-12T10:16:12;103401.09;;;7.26;100.00
8653;BME280;4364;52.426;9.424;2023-02-12T10:19:04;103412.84;;;7.33;100.00
8653;BME280;4364;52.426;9.424;2023-02-12T10:27:16;103407.72;;;7.23;100.00
8653;BME280;4364;52.426;9.424;2023-02-12T10:29:45;103413.81;;;7.25;100.00
8653;BME280;4364;52.426;9.424;2023-02-12T10:32:23;103412.38;;;7.29;100.00
8653;BME280;4364;52.426;9.424;2023-02-12T10:34:52;103406.16;;;7.29;100.00
8653;BME280;4364;52.426;9.424;2023-02-12T10:40:03;103411.66;;;7.35;100.00
8653;BME280;4364;52.426;9.424;2023-02-12T10:42:38;103411.28;;;7.23;100.00
8653;BME280;4364;52.426;9.424;2023-02-12T10:45:12;103410.25;;;7.24;100.00
8653;BME280;4364;52.426;9.424;2023-02-12T10:47:40;103410.88;;;7.27;100.00
8653;BME280;4364;52.426;9.424;2023-02-12T10:53:14;103408.72;;;7.52;100.00
8653;BME280;4364;52.426;9.424;2023-02-12T10:55:42;103401.34;;;7.46;100.00
8653;BME280;4364;52.426;9.424;2023-02-12T10:58:22;103412.19;;;7.46;100.00
8653;BME280;4364;52.426;9.424;2023-02-12T11:01:00;103401.44;;;7.52;100.00
8653;BME280;4364;52.426;9.424;2023-02-12T11:03:30;103405.16;;;7.51;100.00
8653;BME280;4364;52.426;9.424;2023-02-12T11:06:12;103403.50;;;7.50;100.00
8653;BME280;4364;52.426;9.424;2023-02-12T11:08:40;103403.16;;;7.60;100.00
8653;BME280;4364;52.426;9.424;2023-02-12T11:11:19;103399.44;;;7.61;100.00
8653;BME280;4364;52.426;9.424;2023-02-12T11:14:04;103386.56;;;7.48;100.00
8653;BME280;4364;52.426;9.424;2023-02-12T11:16:35;103396.13;;;7.44;100.00
8653;BME280;4364;52.426;9.424;2023-02-12T11:19:05;103398.84;;;7.44;100.00
8653;BME280;4364;52.426;9.424;2023-02-12T11:21:33;103397.69;;;7.53;100.00
8653;BME280;4364;52.426;9.424;2023-02-12T11:24:20;103394.47;;;7.65;100.00
8653;BME280;4364;52.426;9.424;2023-02-12T11:26:48;103389.06;;;7.65;100.00
8653;BME280;4364;52.426;9.424;2023-02-12T11:29:21;103393.75;;;7.56;100.00
8653;BME280;4364;52.426;9.424;2023-02-12T11:32:03;103386.38;;;7.50;100.00
8653;BME280;4364;52.426;9.424;2023-02-12T11:34:30;103383.03;;;7.48;100.00
8653;BME280;4364;52.426;9.424;2023-02-12T11:36:57;103382.41;;;7.46;100.00
8653;BME280;4364;52.426;9.424;2023-02-12T11:39:37;103382.88;;;7.34;100.00
8653;BME280;4364;52.426;9.424;2023-02-12T11:42:14;103385.09;;;7.46;100.00
8653;BME280;4364;52.426;9.424;2023-02-12T11:44:47;103375.41;;;7.36;100.00
8653;BME280;4364;52.426;9.424;2023-02-12T11:47:20;103384.53;;;7.50;100.00
8653;BME280;4364;52.426;9.424;2023-02-12T11:49:55;103379.78;;;7.52;100.00
8653;BME280;4364;52.426;9.424;2023-02-12T11:52:27;103379.25;;;7.42;100.00
8653;BME280;4364;52.426;9.424;2023-02-12T11:54:56;103376.88;;;7.54;100.00
8653;BME280;4364;52.426;9.424;2023-02-12T12:00:34;103377.25;;;7.51;100.00
8653;BME280;4364;52.426;9.424;2023-02-12T12:03:12;103377.19;;;7.44;100.00
8653;BME280;4364;52.426;9.424;2023-02-12T12:05:47;103380.16;;;7.49;100.00
8653;BME280;4364;52.426;9.424;2023-02-12T12:11:08;103375.75;;;7.48;100.00
8653;BME280;4364;52.426;9.424;2023-02-12T12:13:43;103376.34;;;7.44;100.00
8653;BME280;4364;52.426;9.424;2023-02-12T12:16:26;103371.56;;;7.46;100.00
8653;BME280;4364;52.426;9.424;2023-02-12T12:19:19;103369.88;;;7.45;100.00
8653;BME280;4364;52.426;9.424;2023-02-12T12:22:30;103364.72;;;7.50;100.00
8653;BME280;4364;52.426;9.424;2023-02-12T12:25:28;103361.38;;;7.48;100.00
8653;BME280;4364;52.426;9.424;2023-02-12T12:30:52;103357.53;;;7.57;100.00
8653;BME280;4364;52.426;9.424;2023-02-12T12:39:05;103351.97;;;7.44;100.00
8653;BME280;4364;52.426;9.424;2023-02-12T12:42:05;103355.31;;;7.46;100.00
8653;BME280;4364;52.426;9.424;2023-02-12T12:47:55;103353.25;;;7.48;100.00
8653;BME280;4364;52.426;9.424;2023-02-12T12:56:00;103354.34;;;7.53;100.00
8653;BME280;4364;52.426;9.424;2023-02-12T12:58:51;103339.28;;;7.66;100.00
8653;BME280;4364;52.426;9.424;2023-02-12T13:01:30;103346.91;;;7.55;100.00
8653;BME280;4364;52.426;9.424;2023-02-12T13:07:12;103338.84;;;7.62;100.00
8653;BME280;4364;52.426;9.424;2023-02-12T13:10:05;103335.28;;;7.61;100.00
8653;BME280;4364;52.426;9.424;2023-02-12T13:12:44;103332.44;;;7.70;100.00
8653;BME280;4364;52.426;9.424;2023-02-12T13:15:18;103330.28;;;7.58;100.00
8653;BME280;4364;52.426;9.424;2023-02-12T13:20:54;103322.97;;;7.59;100.00
8653;BME280;4364;52.426;9.424;2023-02-12T13:26:32;103326.13;;;7.63;100.00
8653;BME280;4364;52.426;9.424;2023-02-12T13:29:12;103323.88;;;7.66;100.00
8653;BME280;4364;52.426;9.424;2023-02-12T13:31:48;103325.06;;;7.78;100.00
8653;BME280;4364;52.426;9.424;2023-02-12T13:34:17;103323.94;;;7.73;100.00
8653;BME280;4364;52.426;9.424;2023-02-12T13:36:45;103314.28;;;7.64;100.00
8653;BME280;4364;52.426;9.424;2023-02-12T13:39:21;103313.16;;;7.79;100.00
8653;BME280;4364;52.426;9.424;2023-02-12T13:42:02;103316.38;;;7.68;100.00
8653;BME280;4364;52.426;9.424;2023-02-12T13:47:23;103306.47;;;7.75;100.00
8653;BME280;4364;52.426;9.424;2023-02-12T13:49:59;103315.63;;;7.74;100.00
8653;BME280;4364;52.426;9.424;2023-02-12T13:55:19;103306.72;;;7.81;100.00
8653;BME280;4364;52.426;9.424;2023-02-12T14:01:03;103314.22;;;7.78;100.00
8653;BME280;4364;52.426;9.424;2023-02-12T14:03:30;103316.50;;;7.82;100.00
8653;BME280;4364;52.426;9.424;2023-02-12T14:06:13;103316.19;;;7.70;100.00
8653;BME280;4364;52.426;9.424;2023-02-12T14:08:44;103314.22;;;7.78;100.00
8653;BME280;4364;52.426;9.424;2023-02-12T14:11:18;103316.06;;;7.78;100.00
8653;BME280;4364;52.426;9.424;2023-02-12T14:13:52;103314.66;;;7.82;100.00
8653;BME280;4364;52.426;9.424;2023-02-12T14:16:36;103319.97;;;7.69;100.00
8653;BME280;4364;52.426;9.424;2023-02-12T14:19:36;103321.03;;;7.74;100.00
8653;BME280;4364;52.426;9.424;2023-02-12T14:22:13;103315.56;;;7.68;100.00
8653;BME280;4364;52.426;9.424;2023-02-12T14:27:56;103322.53;;;7.77;100.00
8653;BME280;4364;52.426;9.424;2023-02-12T14:30:37;103323.09;;;7.72;100.00
8653;BME280;4364;52.426;9.424;2023-02-12T14:35:40;103329.53;;;7.71;100.00
8653;BME280;4364;52.426;9.424;2023-02-12T14:40:39;103327.88;;;7.70;100.00
8653;BME280;4364;52.426;9.424;2023-02-12T14:43:31;103328.66;;;7.64;100.00
8653;BME280;4364;52.426;9.424;2023-02-12T14:51:22;103330.78;;;7.69;100.00
8653;BME280;4364;52.426;9.424;2023-02-12T14:53:53;103325.69;;;7.81;100.00
8653;BME280;4364;52.426;9.424;2023-02-12T14:56:22;103328.19;;;7.60;100.00
8653;BME280;4364;52.426;9.424;2023-02-12T14:58:51;103324.91;;;7.65;100.00
8653;BME280;4364;52.426;9.424;2023-02-12T15:01:29;103330.47;;;7.57;100.00
8653;BME280;4364;52.426;9.424;2023-02-12T15:03:58;103330.91;;;7.60;100.00
8653;BME280;4364;52.426;9.424;2023-02-12T15:06:36;103329.84;;;7.61;100.00
8653;BME280;4364;52.426;9.424;2023-02-12T15:09:15;103326.97;;;7.63;100.00
8653;BME280;4364;52.426;9.424;2023-02-12T15:11:54;103322.97;;;7.59;100.00
8653;BME280;4364;52.426;9.424;2023-02-12T15:14:27;103322.34;;;7.57;100.00
8653;BME280;4364;52.426;9.424;2023-02-12T15:17:13;103332.69;;;7.53;100.00
8653;BME280;4364;52.426;9.424;2023-02-12T15:19:56;103333.34;;;7.55;100.00
8653;BME280;4364;52.426;9.424;2023-02-12T15:22:32;103324.19;;;7.56;100.00
8653;BME280;4364;52.426;9.424;2023-02-12T15:25:21;103327.09;;;7.55;100.00
8653;BME280;4364;52.426;9.424;2023-02-12T15:27:55;103323.34;;;7.56;100.00